Detalii statie Pioneer South Africa DEMO [00001DA1]

Toti senzorii

Date Solar radiation Dgt [W/mm]Precipitatii [mm]Viteza vantului [m/s]Voltaj baterie [mV]Leaf Wetness [Min]HC Air temperature [C]HC Relative humidity [%]Punctul de roua [C]
mediesumamediemaxultimatimpmedieminmaxmediemediemin
2018-02-23 13:00:00 164 0 1 1.4 6884 18.98 17.36 20.26 78.81 14.9 13.6
2018-02-23 14:00:00 330 0.8 0.5 1.2 6894 18.06 17.45 18.59 95.47 17.2 16.6
2018-02-23 15:00:00 356 0.4 0.4 0.7 6884 18.6 17.94 19.75 88.67 16.5 16.2
2018-02-23 16:00:00 105 0 0.2 0.7 6786 18.05 17.3 18.95 90.06 16.2 15.6
2018-02-23 17:00:00 118 0 0.3 0.9 6874 17.98 17.39 18.37 86.17 15.5 15.1
2018-02-23 18:00:00 51 0 0 0.4 6728 18.26 18.04 18.44 81.05 14.8 14.1
2018-02-23 19:00:00 0 0 0 0 6582 18.02 17.36 18.34 83.15 14.9 14.5
2018-02-23 20:00:00 0 0.2 0 0 6494 16.95 16.69 17.38 97.42 16.4 16.2
2018-02-23 21:00:00 0 0 0 0 6474 16.65 16.5 16.77 99.76 16.4 16.3
2018-02-23 22:00:00 0 0 0 0 6474 16.67 16.41 16.85 100 16.6 16.4
2018-02-23 23:00:00 0 0 0 0 6474 16.37 15.99 16.85 99.99 16.3 15.9
2018-02-24 00:00:00 0 0 0 0 6454 16.07 15.66 16.48 100 16 15.6
2018-02-24 01:00:00 0 0 0 0 6434 16.61 16.48 16.75 100 16.5 16.4
2018-02-24 02:00:00 0 0 0 0 6444 16.81 16.69 16.89 99.85 16.6 16.4
2018-02-24 03:00:00 0 0 0 0 6444 16.81 16.77 16.86 99.27 16.5 16.4
2018-02-24 04:00:00 0 0 0 0.1 6444 16.82 16.79 16.89 99.32 16.5 16.5
2018-02-24 05:00:00 0 0 0 0.1 6434 16.81 16.78 16.86 99.69 16.6 16.5
2018-02-24 06:00:00 0 0 0 0 6434 16.81 16.66 16.87 99.99 16.7 16.4
2018-02-24 07:00:00 26 0 0 0 6464 16.6 16.28 17.29 99.71 16.4 16.1
2018-02-24 08:00:00 71 0 0 0 6590 17.87 17.38 18.22 92.64 16.5 16.2
2018-02-24 09:00:00 191 0 0 0.1 6904 19.13 18.36 20.56 84.19 16.2 15.8
2018-02-24 10:00:00 513 0 0.4 1.1 6884 21.56 20.81 22.09 71.94 16.1 15.9
2018-02-24 11:00:00 297 0 0.5 1 6884 21.77 20.86 23.23 72.51 16.4 16.2
2018-02-24 12:00:00 375 0 0.7 1.3 6884 22.47 21.53 23.63 70.26 16.6 16.1
2018-02-24 13:00:00 699 0 0.9 1.7 6894 24.14 22.7 25.89 62.38 16.2 15.7
2018-02-24 14:00:00 705 0 0.9 1.4 6894 25.41 24.58 26.99 57.91 16.3 15.6
2018-02-24 15:00:00 552 0 0.7 1.1 6874 25.15 24.45 26.5 58.8 16.3 16
2018-02-24 16:00:00 319 0 0.8 1.1 6874 24.94 24.75 25.25 58.08 15.9 15.6
2018-02-24 17:00:00 185 0 0.8 1.4 6776 24.38 23.95 24.93 60.81 16.1 15.8
2018-02-24 18:00:00 84 0 0.9 1.4 6864 23.47 23.09 23.94 66.07 16.5 16.1
2018-02-24 19:00:00 9 0 0.6 1.4 6552 22.4 21.78 22.9 72.6 17 16.6
2018-02-24 20:00:00 0 0 0.7 1.3 6532 21.16 20.94 21.58 86.42 18.6 18.1
2018-02-24 21:00:00 0 0 0.3 1.1 6502 20.6 20.22 20.83 90.08 18.7 18.7
2018-02-24 22:00:00 0 0 0 0 6474 19.89 19.68 20.14 93.55 18.6 18.6
2018-02-24 23:00:00 0 0 0 0.1 6464 19.71 19.65 19.79 95.37 18.8 18.6
2018-02-25 00:00:00 0 0 0 0.1 6454 19.43 19.3 19.7 97.8 18.9 18.8
2018-02-25 01:00:00 0 0 0 0 6454 19.33 19 19.46 98.85 19 18.8
2018-02-25 02:00:00 0 0 0 0 6434 18.58 18.16 18.92 99.99 18.5 18.1
2018-02-25 03:00:00 0 0 0 0 6444 18.69 18.33 18.93 100 18.6 18.3
2018-02-25 04:00:00 0 0 0 0 6424 18.61 18.47 18.84 100 18.5 18.4
2018-02-25 05:00:00 0 0 0 0.5 6434 18.56 18.47 18.69 100 18.5 18.4
2018-02-25 06:00:00 0 0 0 0 6416 18.59 18.51 18.66 100 18.5 18.5
2018-02-25 07:00:00 31 0 0 0.2 6454 18.79 18.67 18.98 100 18.7 18.6
2018-02-25 08:00:00 115 0 0 0.1 6708 19.65 19.12 20.14 95.36 18.7 18.3
2018-02-25 09:00:00 297 0 0.3 0.6 6894 20.98 20 22.1 84.54 18.1 17.4
2018-02-25 10:00:00 313 0 0.3 0.8 6884 22.74 22.19 23.1 72.28 17.3 17
2018-02-25 11:00:00 506 0 0.6 1.2 6894 23.68 22.5 25.02 66.4 16.8 16
2018-02-25 12:00:00 533 0 0.7 1.2 6884 25.15 24.27 25.95 58.66 16.2 15.7